Terminal Aerodrome Forecast
Issued by NWS

Home | Current Version | Previous Version | Text Only | Print | Product List | Glossary On
Versions: 1 2 3 4 5 6 7 8 9 10 11 12 13 14 15 16 17 18 19 20 21
000
FTUS43 KAPX 291720
TAFMBL
TAF
KMBL 291720Z 2918/3018 22012G21KT P6SM VCSH BKN040
     FM292200 25009KT P6SM BKN040
     FM300400 26004KT 4SM BR SCT030
     FM301400 29008KT P6SM SCT040
      AMD LTD TO CLD VIS AND WIND=

USA.gov is the U.S. government's official web portal to all federal, state and local government web resources and services.